Time;durP1;ratioP1;P1;durP2;ratioP2;P2;SDS_P1;SDS_P2;PMS_P1;PMS_P2;Temp;Humidity;BMP_temperature;BMP_pressure;BME280_temperature;BME280_humidity;BME280_pressure;Samples;Min_cycle;Max_cycle;Signal;HPM_P1;HPM_P2
2021/03/03 00:00:49;;;;;;;38.60;19.02;;;6.70;60.70;;;;;;4996395;28;20023;-72
2021/03/03 00:03:14;;;;;;;32.05;18.20;;;6.70;60.90;;;;;;4996305;28;20097;-72
2021/03/03 00:05:40;;;;;;;36.67;20.15;;;6.60;60.90;;;;;;4996181;28;20027;-71
2021/03/03 00:08:06;;;;;;;33.45;18.65;;;6.50;60.80;;;;;;4996288;28;20039;-72
2021/03/03 00:10:32;;;;;;;31.25;17.27;;;6.50;60.40;;;;;;4996184;28;20030;-72
2021/03/03 00:12:57;;;;;;;36.58;18.15;;;6.60;60.00;;;;;;4996212;28;20415;-71
2021/03/03 00:15:23;;;;;;;39.55;19.05;;;6.50;59.70;;;;;;4996071;28;20034;-71
2021/03/03 00:17:48;;;;;;;32.10;17.75;;;6.50;59.40;;;;;;4996160;28;20042;-71
2021/03/03 00:20:15;;;;;;;33.17;18.10;;;6.50;59.20;;;;;;4995924;28;20482;-71
2021/03/03 00:22:40;;;;;;;37.38;18.50;;;6.50;59.20;;;;;;4995840;28;20030;-72
2021/03/03 00:25:06;;;;;;;34.25;18.05;;;6.50;59.00;;;;;;4996016;28;20080;-72
2021/03/03 00:27:32;;;;;;;38.17;19.13;;;6.40;59.00;;;;;;4995754;28;20038;-71
2021/03/03 00:29:58;;;;;;;33.58;17.90;;;6.40;59.00;;;;;;4995859;28;20026;-71
2021/03/03 00:32:23;;;;;;;33.55;16.25;;;6.40;58.80;;;;;;4995594;28;20046;-72
2021/03/03 00:34:49;;;;;;;37.13;17.55;;;6.40;58.60;;;;;;4995679;28;20081;-71
2021/03/03 00:37:14;;;;;;;33.35;16.85;;;6.40;58.60;;;;;;4995691;28;20046;-71
2021/03/03 00:39:40;;;;;;;35.30;17.25;;;6.40;58.40;;;;;;4995629;28;20049;-71
2021/03/03 00:42:06;;;;;;;32.72;17.50;;;6.40;58.20;;;;;;4995604;28;20049;-71
2021/03/03 00:44:31;;;;;;;34.65;17.85;;;6.40;58.30;;;;;;4995394;28;20030;-71
2021/03/03 00:46:57;;;;;;;32.53;17.27;;;6.40;58.40;;;;;;4995440;28;20110;-71
2021/03/03 00:49:22;;;;;;;32.83;17.08;;;6.30;58.30;;;;;;4995384;28;20030;-71
2021/03/03 00:51:48;;;;;;;31.65;15.88;;;6.40;58.10;;;;;;4995287;28;20604;-71
2021/03/03 00:54:14;;;;;;;30.63;16.40;;;6.40;57.90;;;;;;4994377;28;20022;-71
2021/03/03 00:56:39;;;;;;;31.20;17.02;;;6.50;57.50;;;;;;4995211;28;20535;-71
2021/03/03 00:59:05;;;;;;;29.73;16.55;;;6.50;57.30;;;;;;4995254;28;20491;-71
2021/03/03 01:01:30;;;;;;;31.55;16.52;;;6.50;57.80;;;;;;4995129;28;20041;-71
2021/03/03 01:03:56;;;;;;;29.70;15.77;;;6.40;58.20;;;;;;4995232;28;20490;-71
2021/03/03 01:06:21;;;;;;;28.23;14.60;;;6.40;58.40;;;;;;4994929;28;20336;-71
2021/03/03 01:08:47;;;;;;;24.90;15.23;;;6.50;58.30;;;;;;4995008;28;20053;-71
2021/03/03 01:11:12;;;;;;;26.05;14.10;;;6.40;57.90;;;;;;4994923;28;20031;-72
2021/03/03 01:13:38;;;;;;;28.48;15.35;;;6.50;57.20;;;;;;4994911;28;20049;-71
2021/03/03 01:16:04;;;;;;;28.05;14.43;;;6.50;56.40;;;;;;4994978;28;20029;-71
2021/03/03 01:18:30;;;;;;;31.85;14.88;;;6.60;55.90;;;;;;4994844;28;20157;-71
2021/03/03 01:20:56;;;;;;;30.63;14.85;;;6.60;55.60;;;;;;4994753;28;20056;-72
2021/03/03 01:23:22;;;;;;;31.95;14.88;;;6.60;55.20;;;;;;4994683;28;20026;-71
2021/03/03 01:25:47;;;;;;;30.90;14.38;;;6.60;55.00;;;;;;4994532;28;20022;-73
2021/03/03 01:28:13;;;;;;;26.40;14.57;;;6.50;54.80;;;;;;4994535;28;20120;-71
2021/03/03 01:30:39;;;;;;;27.73;13.95;;;6.40;54.70;;;;;;4994532;28;20026;-71
2021/03/03 01:33:05;;;;;;;25.20;14.25;;;6.40;54.60;;;;;;4994452;28;20438;-71
2021/03/03 01:35:30;;;;;;;25.60;13.45;;;6.40;54.70;;;;;;4994265;28;20030;-71
2021/03/03 01:37:56;;;;;;;26.83;13.70;;;6.40;54.80;;;;;;4994425;28;20109;-71
2021/03/03 01:40:21;;;;;;;24.85;12.60;;;6.40;55.00;;;;;;4994215;28;20065;-70
2021/03/03 01:42:47;;;;;;;23.67;12.68;;;6.30;54.90;;;;;;4994207;28;20033;-71
2021/03/03 01:45:13;;;;;;;26.95;13.63;;;6.30;54.60;;;;;;4994109;28;20018;-72
2021/03/03 01:47:39;;;;;;;22.98;12.82;;;6.30;55.10;;;;;;4993953;28;20038;-71
2021/03/03 01:50:07;;;;;;;26.63;12.55;;;6.30;54.00;;;;;;4993989;28;20364;-71
2021/03/03 01:52:35;;;;;;;26.85;12.40;;;6.30;53.90;;;;;;4993972;28;20054;-71
2021/03/03 01:55:01;;;;;;;27.38;13.10;;;6.30;54.00;;;;;;4994064;28;20030;-71
2021/03/03 01:57:26;;;;;;;27.17;12.68;;;6.30;54.10;;;;;;4992625;28;20514;-71
2021/03/03 01:59:52;;;;;;;22.05;11.77;;;6.20;53.70;;;;;;4993927;28;20168;-71
2021/03/03 02:02:19;;;;;;;26.67;12.70;;;6.30;53.70;;;;;;4993837;28;20034;-71
2021/03/03 02:04:44;;;;;;;23.73;12.50;;;6.40;53.60;;;;;;4993605;28;20023;-71
2021/03/03 02:07:13;;;;;;;23.80;12.07;;;6.30;53.60;;;;;;4993741;28;20038;-71
2021/03/03 02:09:57;;;;;;;29.25;13.40;;;6.30;53.60;;;;;;4993686;28;20025;-71
2021/03/03 02:13:01;;;;;;;26.15;12.30;;;6.20;53.80;;;;;;4993647;28;20169;-71
2021/03/03 02:15:29;;;;;;;23.38;12.05;;;6.10;54.10;;;;;;4970667;28;20034;-72
2021/03/03 02:17:57;;;;;;;21.13;12.52;;;6.10;54.30;;;;;;4993790;28;20027;-71
2021/03/03 02:20:27;;;;;;;20.92;11.73;;;6.10;54.30;;;;;;4993616;28;20038;-71
2021/03/03 02:23:14;;;;;;;25.52;12.18;;;6.10;54.30;;;;;;4993948;28;20026;-71
2021/03/03 02:25:44;;;;;;;22.75;11.88;;;6.20;54.00;;;;;;4993743;28;20041;-72
2021/03/03 02:28:11;;;;;;;23.35;11.85;;;6.20;53.70;;;;;;4993511;28;20120;-71
2021/03/03 02:30:39;;;;;;;24.00;11.80;;;6.10;53.50;;;;;;4993422;28;20081;-71
2021/03/03 02:33:07;;;;;;;21.90;11.60;;;6.10;52.90;;;;;;4992250;28;20049;-71
2021/03/03 02:35:33;;;;;;;19.90;11.23;;;6.10;52.70;;;;;;4993507;28;20085;-71
2021/03/03 02:37:59;;;;;;;22.08;11.20;;;6.10;52.40;;;;;;4993595;28;20034;-72
2021/03/03 02:40:27;;;;;;;23.65;11.15;;;6.10;52.10;;;;;;4993483;28;20057;-71
2021/03/03 02:42:55;;;;;;;20.08;10.90;;;6.10;51.60;;;;;;4993463;28;20553;-71
2021/03/03 02:45:22;;;;;;;16.15;9.65;;;6.20;51.00;;;;;;4993419;28;20034;-71
2021/03/03 02:47:50;;;;;;;20.77;9.82;;;6.30;50.60;;;;;;4993427;28;20038;-71
2021/03/03 02:50:15;;;;;;;17.92;10.10;;;6.30;50.00;;;;;;4992052;28;20395;-70
2021/03/03 02:52:47;;;;;;;18.83;9.85;;;6.20;49.80;;;;;;4993356;28;20022;-71
2021/03/03 02:55:14;;;;;;;16.27;8.73;;;6.20;49.80;;;;;;4993534;28;20030;-72
2021/03/03 02:57:41;;;;;;;18.20;9.90;;;6.20;49.70;;;;;;4993146;28;20141;-72
2021/03/03 03:00:07;;;;;;;19.42;9.52;;;6.20;49.70;;;;;;4993218;28;20029;-72
2021/03/03 03:02:35;;;;;;;17.50;9.60;;;6.20;49.70;;;;;;4993131;28;20027;-72
2021/03/03 03:05:04;;;;;;;15.48;8.35;;;6.10;49.70;;;;;;4993213;28;20034;-72
2021/03/03 03:07:34;;;;;;;17.50;9.20;;;6.00;49.80;;;;;;4993220;28;20039;-71
2021/03/03 03:10:01;;;;;;;17.77;10.00;;;6.00;50.10;;;;;;4993123;28;20054;-72
2021/03/03 03:12:29;;;;;;;14.75;8.00;;;6.00;50.20;;;;;;4993149;28;20479;-72
2021/03/03 03:14:58;;;;;;;16.58;9.13;;;6.00;49.70;;;;;;4993342;28;20026;-71
2021/03/03 03:17:25;;;;;;;15.48;8.60;;;6.10;50.60;;;;;;4999002;28;20019;-72
2021/03/03 03:19:53;;;;;;;15.88;7.90;;;6.10;50.60;;;;;;5002341;28;20093;-72
2021/03/03 03:22:25;;;;;;;18.20;8.00;;;6.10;50.50;;;;;;4998654;28;20137;-72
2021/03/03 03:24:52;;;;;;;18.67;8.90;;;6.30;50.40;;;;;;4997359;28;20109;-72
2021/03/03 03:27:18;;;;;;;18.70;8.20;;;6.20;49.70;;;;;;4997021;28;20039;-72
2021/03/03 03:29:45;;;;;;;21.80;8.43;;;6.20;49.20;;;;;;4997097;28;20407;-71
2021/03/03 03:32:12;;;;;;;17.08;8.25;;;6.20;48.90;;;;;;4996876;28;20018;-72
2021/03/03 03:34:37;;;;;;;18.40;8.52;;;6.20;48.40;;;;;;4995623;28;20380;-72
2021/03/03 03:37:05;;;;;;;21.55;8.82;;;6.30;47.80;;;;;;4995662;28;20037;-72
2021/03/03 03:39:31;;;;;;;15.85;7.93;;;6.30;47.50;;;;;;4996863;28;20026;-72
2021/03/03 03:41:57;;;;;;;19.73;9.15;;;6.20;47.10;;;;;;4995554;28;20080;-71
2021/03/03 03:44:25;;;;;;;18.13;8.15;;;6.20;47.00;;;;;;4996703;28;20430;-72
2021/03/03 03:46:51;;;;;;;16.95;8.45;;;6.20;47.20;;;;;;4996735;28;20058;-71
2021/03/03 03:49:18;;;;;;;16.40;8.77;;;6.20;48.00;;;;;;4996571;28;20038;-71
2021/03/03 03:51:44;;;;;;;17.17;8.32;;;6.20;48.70;;;;;;4996637;28;20030;-72
2021/03/03 03:54:11;;;;;;;15.15;7.68;;;6.20;49.00;;;;;;4996556;28;20169;-72
2021/03/03 03:56:39;;;;;;;14.18;7.90;;;6.10;49.00;;;;;;4996271;28;20046;-72
2021/03/03 03:59:04;;;;;;;26.60;9.57;;;6.10;49.20;;;;;;4996527;28;20042;-72
2021/03/03 04:01:30;;;;;;;19.48;10.05;;;5.80;52.50;;;;;;4996383;28;20026;-72
2021/03/03 04:03:55;;;;;;;18.70;9.57;;;5.80;54.70;;;;;;4996493;28;20110;-70
2021/03/03 04:06:21;;;;;;;14.07;8.32;;;5.70;55.70;;;;;;4996286;28;20090;-72
2021/03/03 04:08:46;;;;;;;19.05;8.75;;;5.70;55.70;;;;;;4996247;28;20069;-70
2021/03/03 04:11:12;;;;;;;15.93;7.82;;;5.70;54.60;;;;;;4996272;28;20034;-72
2021/03/03 04:13:37;;;;;;;17.70;7.20;;;5.70;52.00;;;;;;4996154;28;20054;-71
2021/03/03 04:16:03;;;;;;;13.00;7.45;;;5.80;50.10;;;;;;4996247;28;20038;-71
2021/03/03 04:18:29;;;;;;;12.18;6.63;;;5.90;49.20;;;;;;4996135;28;20119;-73
2021/03/03 04:20:54;;;;;;;14.15;6.55;;;5.90;48.20;;;;;;4995976;28;20026;-72
2021/03/03 04:23:20;;;;;;;16.05;7.20;;;5.90;47.50;;;;;;4994707;28;20092;-71
2021/03/03 04:25:45;;;;;;;14.57;6.68;;;5.90;47.30;;;;;;4994707;28;20018;-71
2021/03/03 04:28:11;;;;;;;14.48;6.13;;;5.90;47.10;;;;;;4995689;28;20440;-72
2021/03/03 04:30:36;;;;;;;11.60;6.43;;;5.90;46.90;;;;;;4995905;28;20048;-74
2021/03/03 04:33:02;;;;;;;10.68;5.85;;;5.90;46.40;;;;;;4995901;28;20414;-71
2021/03/03 04:35:28;;;;;;;13.13;6.15;;;6.00;46.10;;;;;;4995800;28;20088;-70
2021/03/03 04:37:54;;;;;;;14.77;6.78;;;6.10;45.80;;;;;;4995782;28;20022;-70
2021/03/03 04:40:19;;;;;;;11.55;5.78;;;6.10;45.20;;;;;;4995708;28;20030;-70
2021/03/03 04:42:45;;;;;;;11.40;5.70;;;6.10;44.70;;;;;;4995711;28;20097;-71
2021/03/03 04:45:11;;;;;;;13.55;6.13;;;6.10;44.40;;;;;;4995542;28;20034;-70
2021/03/03 04:47:38;;;;;;;11.57;5.72;;;6.10;44.40;;;;;;4995468;28;20117;-70
2021/03/03 04:50:06;;;;;;;13.85;5.00;;;6.10;44.20;;;;;;4995679;28;20081;-72
2021/03/03 04:52:31;;;;;;;11.10;5.43;;;6.10;44.60;;;;;;4995476;28;20062;-71
2021/03/03 04:54:57;;;;;;;11.65;5.80;;;6.00;45.00;;;;;;4995509;28;20046;-73
2021/03/03 04:57:23;;;;;;;14.70;6.50;;;6.00;45.40;;;;;;4995351;28;20046;-72
2021/03/03 04:59:48;;;;;;;13.30;6.40;;;5.90;45.80;;;;;;4995445;28;20443;-72
2021/03/03 05:02:14;;;;;;;13.73;5.88;;;5.90;46.30;;;;;;4995630;28;20038;-71
2021/03/03 05:04:39;;;;;;;11.00;6.05;;;5.80;46.80;;;;;;4995783;28;20027;-72
2021/03/03 05:07:05;;;;;;;11.18;5.50;;;5.70;47.10;;;;;;4995685;28;20042;-72
2021/03/03 05:09:31;;;;;;;15.57;6.28;;;5.70;47.50;;;;;;4995545;28;20018;-71
2021/03/03 05:11:57;;;;;;;15.88;7.15;;;5.60;48.30;;;;;;4995631;28;20391;-72
2021/03/03 05:14:22;;;;;;;11.57;6.85;;;5.60;48.90;;;;;;4995223;28;20032;-71
2021/03/03 05:16:48;;;;;;;12.02;6.43;;;5.60;49.40;;;;;;4995569;28;20375;-71
2021/03/03 05:19:13;;;;;;;14.80;6.75;;;5.60;49.40;;;;;;4995403;28;20496;-73
2021/03/03 05:21:39;;;;;;;13.38;5.35;;;5.60;49.00;;;;;;4995383;28;20109;-72
2021/03/03 05:24:05;;;;;;;10.48;5.25;;;5.60;48.20;;;;;;4995320;28;20423;-72
2021/03/03 05:26:30;;;;;;;10.55;5.28;;;5.60;47.20;;;;;;4995231;28;20073;-72
2021/03/03 05:28:56;;;;;;;9.27;5.05;;;5.70;46.40;;;;;;4995244;28;20027;-72
2021/03/03 05:31:22;;;;;;;12.40;5.35;;;5.70;45.80;;;;;;4995153;28;20530;-71
2021/03/03 05:33:47;;;;;;;14.25;5.53;;;5.80;45.30;;;;;;4995163;28;20023;-71
2021/03/03 05:36:13;;;;;;;13.57;5.70;;;5.90;45.10;;;;;;4993884;28;20078;-71
2021/03/03 05:38:40;;;;;;;10.32;5.55;;;5.90;44.80;;;;;;4994535;28;20061;-71
2021/03/03 05:41:06;;;;;;;12.25;5.93;;;6.00;44.60;;;;;;4994991;28;20022;-73
2021/03/03 05:43:33;;;;;;;16.27;5.57;;;5.90;44.40;;;;;;4994843;28;20045;-72
2021/03/03 05:46:00;;;;;;;9.73;5.10;;;5.90;44.20;;;;;;4994862;28;20101;-70
2021/03/03 05:48:37;;;;;;;11.80;4.47;;;6.00;43.90;;;;;;4994762;28;20038;-72
2021/03/03 05:51:05;;;;;;;11.63;5.43;;;6.10;43.70;;;;;;4994859;28;20019;-71
2021/03/03 05:53:31;;;;;;;13.95;5.75;;;6.00;43.40;;;;;;4994585;28;20026;-72
2021/03/03 05:55:59;;;;;;;18.60;6.10;;;6.10;43.40;;;;;;4994402;28;20018;-70
2021/03/03 05:58:28;;;;;;;18.35;6.25;;;6.10;43.30;;;;;;4994608;28;20034;-72
2021/03/03 06:00:59;;;;;;;14.07;5.60;;;6.10;43.10;;;;;;4994732;28;20026;-71
2021/03/03 06:03:25;;;;;;;12.32;5.85;;;6.10;43.00;;;;;;4994628;28;20546;-71
2021/03/03 06:05:51;;;;;;;14.75;5.93;;;6.10;42.80;;;;;;4993322;28;20513;-71
2021/03/03 06:08:19;;;;;;;16.27;6.60;;;6.10;44.10;;;;;;4994342;28;20034;-71
2021/03/03 06:10:45;;;;;;;16.70;6.20;;;6.10;44.10;;;;;;4994312;28;20029;-71
2021/03/03 06:13:12;;;;;;;13.35;6.32;;;6.10;45.20;;;;;;4994433;28;20026;-71
2021/03/03 06:15:38;;;;;;;16.10;6.97;;;6.10;44.30;;;;;;4994265;28;20026;-71
2021/03/03 06:18:06;;;;;;;19.15;7.90;;;6.00;44.00;;;;;;4994279;28;20026;-71
2021/03/03 06:20:38;;;;;;;16.73;6.55;;;6.00;44.50;;;;;;4992944;28;20024;-71
2021/03/03 06:23:24;;;;;;;15.77;7.18;;;5.90;45.70;;;;;;4994187;28;20062;-71
2021/03/03 06:25:56;;;;;;;14.98;6.60;;;5.80;46.30;;;;;;4994097;28;20026;-71
2021/03/03 06:28:38;;;;;;;14.38;6.60;;;5.80;46.80;;;;;;4993917;28;20034;-71
2021/03/03 06:31:39;;;;;;;16.65;5.10;;;5.90;46.90;;;;;;4992733;28;20112;-71
2021/03/03 06:34:14;;;;;;;12.77;4.78;;;6.00;46.10;;;;;;4993461;28;20042;-71
2021/03/03 06:36:41;;;;;;;9.48;4.35;;;5.90;45.20;;;;;;4993863;28;20110;-71
2021/03/03 06:39:25;;;;;;;8.85;4.78;;;6.10;44.20;;;;;;4993895;28;20068;-72
2021/03/03 06:41:55;;;;;;;18.88;5.68;;;6.20;43.40;;;;;;4993927;28;20551;-73
2021/03/03 06:44:21;;;;;;;14.60;6.18;;;6.30;42.80;;;;;;4993787;28;20109;-72
2021/03/03 06:47:04;;;;;;;17.05;6.75;;;6.30;42.40;;;;;;4993736;28;20026;-72
2021/03/03 06:49:30;;;;;;;30.38;9.75;;;6.40;42.00;;;;;;4993424;28;20596;-71
2021/03/03 06:51:56;;;;;;;31.58;8.50;;;6.40;41.90;;;;;;4992893;28;20040;-71
2021/03/03 06:54:23;;;;;;;18.27;7.07;;;6.50;41.70;;;;;;4993685;28;20132;-71
2021/03/03 06:56:51;;;;;;;23.67;12.02;;;6.60;41.50;;;;;;4993615;28;20116;-72
2021/03/03 06:59:27;;;;;;;25.95;11.93;;;6.60;41.40;;;;;;4993457;28;20041;-72
2021/03/03 07:01:55;;;;;;;29.77;13.38;;;6.70;41.60;;;;;;4992039;28;20027;-72
2021/03/03 07:04:26;;;;;;;19.42;8.43;;;6.70;41.50;;;;;;4993571;28;20014;-71
2021/03/03 07:06:58;;;;;;;21.55;10.43;;;6.70;41.40;;;;;;4993573;28;20030;-71
2021/03/03 07:09:25;;;;;;;12.90;5.97;;;6.70;41.50;;;;;;4993509;28;20018;-71
2021/03/03 07:12:02;;;;;;;17.15;6.65;;;6.80;41.40;;;;;;4993691;28;20160;-72
2021/03/03 07:14:28;;;;;;;15.25;5.25;;;6.80;41.30;;;;;;4993448;28;20030;-72
2021/03/03 07:17:10;;;;;;;15.48;5.10;;;6.80;41.30;;;;;;4993682;28;20138;-71
2021/03/03 07:19:50;;;;;;;15.63;4.70;;;6.80;41.10;;;;;;4993232;28;20072;-71
2021/03/03 07:22:31;;;;;;;16.60;4.85;;;6.90;41.10;;;;;;4993364;28;20431;-73
2021/03/03 07:25:05;;;;;;;13.70;5.55;;;7.00;41.00;;;;;;4994164;28;20022;-72
2021/03/03 07:27:31;;;;;;;15.63;5.97;;;7.00;41.00;;;;;;4995478;28;20074;-73
2021/03/03 07:30:04;;;;;;;17.20;4.93;;;7.10;40.80;;;;;;4994363;28;20498;-72
2021/03/03 07:32:29;;;;;;;20.13;5.93;;;7.20;40.60;;;;;;4992097;28;20514;-71
2021/03/03 07:34:56;;;;;;;12.75;4.22;;;7.20;40.50;;;;;;4993406;28;20035;-72
2021/03/03 07:37:24;;;;;;;15.48;4.75;;;7.30;45.60;;;;;;4992285;28;20026;-73
2021/03/03 07:40:17;;;;;;;15.73;4.90;;;7.70;45.30;;;;;;4993607;28;20548;-73
2021/03/03 07:42:51;;;;;;;13.65;5.30;;;8.00;46.90;;;;;;4990717;28;20038;-72
2021/03/03 07:45:18;;;;;;;12.80;5.83;;;8.30;50.00;;;;;;4993187;28;20022;-73
2021/03/03 07:47:44;;;;;;;20.52;9.43;;;8.70;50.00;;;;;;4991913;28;20697;-74
2021/03/03 07:50:13;;;;;;;16.67;7.28;;;8.90;45.60;;;;;;4993510;28;20023;-74
2021/03/03 07:52:47;;;;;;;21.80;7.53;;;8.90;44.40;;;;;;4993361;28;20406;-74
2021/03/03 07:55:14;;;;;;;19.23;9.35;;;9.00;46.80;;;;;;4992003;28;20025;-74
2021/03/03 07:57:43;;;;;;;22.35;8.70;;;9.10;46.30;;;;;;4992984;28;20112;-73
2021/03/03 08:00:12;;;;;;;16.00;6.93;;;9.10;44.80;;;;;;4993128;28;20029;-73
2021/03/03 08:02:51;;;;;;;12.57;6.00;;;9.00;43.80;;;;;;4993664;28;20041;-73
2021/03/03 08:05:30;;;;;;;22.95;8.05;;;9.10;43.10;;;;;;4995417;28;20022;-73
2021/03/03 08:08:08;;;;;;;18.95;8.02;;;9.30;44.00;;;;;;4995299;28;20034;-73
2021/03/03 08:10:38;;;;;;;20.17;8.30;;;9.60;43.70;;;;;;4995347;28;20018;-73
2021/03/03 08:13:13;;;;;;;18.33;8.38;;;9.70;43.60;;;;;;4995359;28;20387;-73
2021/03/03 08:15:56;;;;;;;24.25;10.80;;;9.80;43.30;;;;;;4996153;28;20085;-74
2021/03/03 08:18:32;;;;;;;24.65;11.68;;;9.90;43.40;;;;;;4995029;28;20093;-73
2021/03/03 08:20:59;;;;;;;31.52;13.50;;;9.90;43.40;;;;;;4996336;28;20061;-72
2021/03/03 08:23:34;;;;;;;26.02;12.13;;;9.70;43.30;;;;;;4996317;28;20026;-71
2021/03/03 08:26:02;;;;;;;24.52;10.50;;;9.50;43.40;;;;;;4996334;28;20030;-71
2021/03/03 08:28:50;;;;;;;34.53;14.90;;;9.30;43.80;;;;;;4994744;28;20128;-72
2021/03/03 08:31:17;;;;;;;29.38;15.00;;;9.20;44.30;;;;;;4996304;28;20101;-72
2021/03/03 08:33:44;;;;;;;33.35;14.23;;;9.10;44.90;;;;;;4995923;28;20065;-72
2021/03/03 08:36:34;;;;;;;32.00;12.27;;;9.00;45.20;;;;;;4995782;28;20014;-72
2021/03/03 08:39:00;;;;;;;23.90;11.70;;;9.00;45.40;;;;;;4992762;28;20554;-72
2021/03/03 08:41:26;;;;;;;24.08;10.85;;;9.00;45.40;;;;;;4996050;28;20031;-72
2021/03/03 08:44:01;;;;;;;24.15;10.77;;;9.00;45.50;;;;;;4995824;28;20109;-72
2021/03/03 08:46:29;;;;;;;19.85;10.02;;;9.00;45.50;;;;;;4995531;28;20026;-72
2021/03/03 08:48:55;;;;;;;33.35;10.50;;;9.10;45.40;;;;;;4995772;28;20077;-72
2021/03/03 08:51:25;;;;;;;23.88;10.45;;;9.10;45.10;;;;;;4995496;28;20034;-72
2021/03/03 08:53:54;;;;;;;20.30;8.75;;;9.10;45.00;;;;;;4995775;28;20073;-72
2021/03/03 08:56:39;;;;;;;21.70;10.40;;;9.10;44.80;;;;;;4995323;28;20529;-72
2021/03/03 08:59:08;;;;;;;29.98;10.70;;;9.20;44.50;;;;;;4995550;28;20038;-72
2021/03/03 09:02:17;;;;;;;26.60;10.73;;;9.20;44.60;;;;;;4995497;28;20023;-72
2021/03/03 09:05:09;;;;;;;29.48;12.52;;;9.20;45.30;;;;;;4973831;28;20038;-72
2021/03/03 09:07:35;;;;;;;24.73;9.40;;;9.20;45.80;;;;;;4973843;28;20646;-73
2021/03/03 09:10:15;;;;;;;25.35;8.65;;;9.20;45.80;;;;;;4988286;28;20034;-73
2021/03/03 09:12:45;;;;;;;15.52;7.90;;;9.20;45.90;;;;;;4995517;28;20506;-73
2021/03/03 09:15:13;;;;;;;24.60;8.65;;;9.40;46.30;;;;;;4994500;28;20027;-73
2021/03/03 09:17:39;;;;;;;19.38;7.57;;;9.50;46.50;;;;;;4995254;28;20181;-71
2021/03/03 09:20:09;;;;;;;33.22;9.77;;;9.60;46.30;;;;;;4995005;28;20110;-72
2021/03/03 09:22:41;;;;;;;18.70;7.97;;;9.60;46.00;;;;;;4994915;28;20098;-72
2021/03/03 09:25:17;;;;;;;23.90;9.32;;;9.70;46.10;;;;;;4994953;28;20018;-72
2021/03/03 09:27:58;;;;;;;37.63;8.45;;;9.90;46.10;;;;;;4994985;28;20093;-73
2021/03/03 09:30:26;;;;;;;24.13;8.30;;;9.90;46.00;;;;;;4995037;28;20459;-73
2021/03/03 09:32:53;;;;;;;19.15;7.88;;;10.00;45.80;;;;;;4995182;28;20030;-73
2021/03/03 09:35:29;;;;;;;14.45;7.25;;;10.10;45.60;;;;;;4994820;28;20490;-73
2021/03/03 09:37:56;;;;;;;22.38;8.10;;;10.20;45.60;;;;;;4997666;28;20076;-73
2021/03/03 09:40:27;;;;;;;22.38;7.38;;;10.30;45.60;;;;;;5000191;28;20030;-75
2021/03/03 09:42:52;;;;;;;23.42;8.77;;;10.40;45.40;;;;;;5000461;28;20058;-74
2021/03/03 09:45:19;;;;;;;19.38;7.80;;;10.40;45.40;;;;;;4995459;28;20029;-73
2021/03/03 09:47:46;;;;;;;21.35;7.80;;;10.50;45.40;;;;;;4995153;28;20042;-73
2021/03/03 09:50:14;;;;;;;19.65;8.70;;;10.70;45.40;;;;;;4993714;28;20117;-73
2021/03/03 09:52:42;;;;;;;14.90;8.00;;;10.70;46.00;;;;;;4994537;28;20032;-74
2021/03/03 09:55:10;;;;;;;13.70;7.78;;;10.80;44.70;;;;;;4994848;28;20085;-73
2021/03/03 09:57:36;;;;;;;17.65;8.90;;;10.90;44.30;;;;;;4994388;28;20050;-73
2021/03/03 10:00:12;;;;;;;17.38;8.70;;;11.00;43.90;;;;;;4994382;28;20049;-74
2021/03/03 10:02:49;;;;;;;17.00;9.10;;;11.00;43.70;;;;;;4994477;28;20030;-74
2021/03/03 10:05:20;;;;;;;16.83;8.98;;;11.10;43.60;;;;;;4994314;28;20029;-73
2021/03/03 10:07:59;;;;;;;15.77;7.95;;;11.20;43.30;;;;;;4993086;28;20141;-73
2021/03/03 10:10:28;;;;;;;16.58;8.90;;;11.30;43.20;;;;;;4994220;28;20502;-73
2021/03/03 10:12:54;;;;;;;16.50;7.63;;;11.40;43.20;;;;;;4994028;28;20555;-73
2021/03/03 10:15:22;;;;;;;18.40;8.75;;;11.50;43.00;;;;;;4994132;28;20057;-74
2021/03/03 10:17:53;;;;;;;15.52;8.27;;;11.60;42.80;;;;;;4993957;28;20030;-73
2021/03/03 10:20:56;;;;;;;18.40;8.52;;;11.70;42.40;;;;;;4993957;28;20045;-74
2021/03/03 10:23:23;;;;;;;16.77;8.20;;;11.70;42.20;;;;;;4994167;28;20077;-72
2021/03/03 10:25:53;;;;;;;18.00;8.10;;;11.80;41.70;;;;;;4993870;28;20034;-73
2021/03/03 10:28:25;;;;;;;15.75;7.95;;;11.90;41.20;;;;;;4993652;28;20368;-72
2021/03/03 10:30:53;;;;;;;14.02;7.82;;;12.00;41.60;;;;;;4993988;28;20030;-72
2021/03/03 10:33:28;;;;;;;18.73;9.43;;;12.00;40.50;;;;;;4993830;28;20058;-72
2021/03/03 10:35:56;;;;;;;20.63;10.38;;;12.20;40.50;;;;;;4992495;28;20026;-73
2021/03/03 10:38:24;;;;;;;21.52;10.45;;;12.20;40.20;;;;;;4993400;28;20026;-73
2021/03/03 10:40:52;;;;;;;25.17;10.65;;;12.30;40.10;;;;;;4992676;28;20033;-73
2021/03/03 10:43:20;;;;;;;20.40;10.07;;;12.40;40.20;;;;;;4993920;28;20324;-73
2021/03/03 10:45:47;;;;;;;21.17;9.60;;;12.50;40.30;;;;;;4993932;28;20031;-73
2021/03/03 10:48:29;;;;;;;16.23;9.70;;;12.60;40.10;;;;;;4993607;28;20118;-73
2021/03/03 10:50:58;;;;;;;21.55;10.32;;;12.70;40.10;;;;;;4993824;28;20212;-74
2021/03/03 10:53:23;;;;;;;22.00;10.63;;;12.60;39.80;;;;;;4993884;28;20087;-73
2021/03/03 10:55:49;;;;;;;24.30;12.52;;;12.60;39.70;;;;;;4993434;28;20499;-72
2021/03/03 10:58:15;;;;;;;29.77;13.93;;;12.60;39.60;;;;;;4993788;28;20041;-73
2021/03/03 11:00:56;;;;;;;24.08;12.20;;;12.50;39.30;;;;;;4993730;28;20115;-73
2021/03/03 11:03:22;;;;;;;22.02;10.73;;;12.60;39.20;;;;;;4992179;28;20491;-73
2021/03/03 11:05:56;;;;;;;24.88;10.70;;;12.70;38.70;;;;;;4992329;28;20108;-73
2021/03/03 11:08:23;;;;;;;20.70;9.73;;;12.90;38.40;;;;;;4993398;28;20156;-73
2021/03/03 11:10:49;;;;;;;20.33;9.30;;;13.00;38.20;;;;;;4993478;28;20109;-72
2021/03/03 11:13:15;;;;;;;22.95;9.38;;;13.10;38.10;;;;;;4992240;28;20086;-72
2021/03/03 11:15:41;;;;;;;21.83;9.02;;;13.00;37.60;;;;;;4992725;28;20036;-73
2021/03/03 11:18:09;;;;;;;26.10;8.82;;;13.10;37.60;;;;;;4993128;28;20030;-73
2021/03/03 11:20:36;;;;;;;17.75;8.95;;;13.00;37.60;;;;;;4994563;28;20023;-74
2021/03/03 11:23:02;;;;;;;24.83;8.55;;;12.90;37.30;;;;;;5014428;28;20022;-73
2021/03/03 11:25:28;;;;;;;22.15;8.88;;;13.00;37.30;;;;;;5014340;28;20094;-73
2021/03/03 11:27:55;;;;;;;17.52;8.38;;;13.00;37.20;;;;;;5015297;28;20043;-73
2021/03/03 11:30:21;;;;;;;23.13;10.10;;;13.20;37.20;;;;;;5005444;28;20019;-74
2021/03/03 11:32:46;;;;;;;19.73;8.93;;;13.40;37.30;;;;;;4994423;28;20092;-73
2021/03/03 11:35:12;;;;;;;19.15;9.43;;;13.50;37.30;;;;;;4993499;28;20033;-74
2021/03/03 11:37:38;;;;;;;22.45;8.88;;;13.60;37.20;;;;;;4995065;28;20031;-73
2021/03/03 11:40:05;;;;;;;15.05;9.50;;;13.70;36.90;;;;;;4996969;28;20082;-73
2021/03/03 11:42:30;;;;;;;21.23;9.77;;;13.80;36.90;;;;;;4997136;28;20032;-73
2021/03/03 11:44:56;;;;;;;29.02;9.73;;;13.90;36.90;;;;;;4997695;28;20026;-73
2021/03/03 11:47:21;;;;;;;17.25;8.73;;;14.00;36.70;;;;;;4998187;28;20077;-74
2021/03/03 11:49:47;;;;;;;18.08;8.30;;;14.10;36.70;;;;;;4997124;28;20392;-74
2021/03/03 11:52:13;;;;;;;34.78;11.13;;;14.20;36.70;;;;;;4996793;28;20436;-74
2021/03/03 11:54:38;;;;;;;20.23;8.40;;;14.30;36.60;;;;;;4997082;28;20076;-74
2021/03/03 11:57:04;;;;;;;15.07;7.03;;;14.40;35.90;;;;;;4996613;28;20085;-72
2021/03/03 11:59:30;;;;;;;20.33;7.25;;;14.50;34.90;;;;;;4997053;28;20053;-73
2021/03/03 12:01:58;;;;;;;21.95;8.05;;;14.60;34.20;;;;;;4997005;28;20475;-74
2021/03/03 12:04:23;;;;;;;12.38;7.15;;;14.70;34.00;;;;;;4996600;28;20037;-74
2021/03/03 12:06:49;;;;;;;12.82;7.55;;;14.70;33.90;;;;;;4995598;28;20042;-73
2021/03/03 12:09:14;;;;;;;15.10;7.50;;;14.80;34.10;;;;;;4996744;28;20022;-74
2021/03/03 12:11:40;;;;;;;20.08;7.65;;;14.90;33.90;;;;;;4995524;28;20053;-74
2021/03/03 12:14:06;;;;;;;17.02;7.28;;;14.90;33.60;;;;;;4996605;28;20031;-74
2021/03/03 12:16:32;;;;;;;10.38;6.57;;;15.00;33.10;;;;;;4996366;28;20027;-74
2021/03/03 12:18:57;;;;;;;16.70;7.57;;;15.10;32.90;;;;;;4996625;28;20097;-74
2021/03/03 12:21:23;;;;;;;16.02;7.35;;;15.10;33.30;;;;;;4996305;28;20022;-74
2021/03/03 12:23:49;;;;;;;13.88;7.35;;;15.10;32.30;;;;;;4996343;28;20035;-74
2021/03/03 12:26:14;;;;;;;11.73;6.60;;;15.10;32.20;;;;;;4995337;28;20543;-73
2021/03/03 12:28:40;;;;;;;12.85;6.75;;;15.10;32.10;;;;;;4996206;28;20034;-74
2021/03/03 12:31:05;;;;;;;13.70;6.95;;;15.20;31.90;;;;;;4995157;28;20015;-73
2021/03/03 12:33:31;;;;;;;13.85;8.00;;;15.30;32.00;;;;;;4995700;28;20054;-74
2021/03/03 12:35:56;;;;;;;16.58;7.53;;;15.30;31.90;;;;;;4996128;28;20030;-73
2021/03/03 12:38:22;;;;;;;14.32;7.70;;;15.40;31.90;;;;;;4996075;28;20022;-73
2021/03/03 12:40:48;;;;;;;14.15;7.65;;;15.40;31.90;;;;;;4996741;28;20026;-72
2021/03/03 12:43:13;;;;;;;12.75;7.03;;;15.40;31.90;;;;;;4998853;28;20023;-74
2021/03/03 12:45:39;;;;;;;10.65;6.65;;;15.40;31.70;;;;;;4997660;28;20022;-73
2021/03/03 12:48:05;;;;;;;12.57;7.10;;;15.40;31.80;;;;;;4996293;28;20038;-73